Time;durP1;ratioP1;P1;durP2;ratioP2;P2;SDS_P1;SDS_P2;PMS_P1;PMS_P2;Temp;Humidity;BMP_temperature;BMP_pressure;BME280_temperature;BME280_humidity;BME280_pressure;Samples;Min_cycle;Max_cycle;Signal;HPM_P1;HPM_P2
2023/07/25 00:01:44;;;;;;;7.25;2.33;;;;;;;;;;4921756;29;20074;-64
2023/07/25 00:04:10;;;;;;;6.40;2.33;;;;;;;;;;4938370;29;20399;-64
2023/07/25 00:06:36;;;;;;;6.90;2.10;;;;;;;;;;4938738;29;20041;-64
2023/07/25 00:09:02;;;;;;;6.05;2.22;;;;;;;;;;4938492;29;20582;-64
2023/07/25 00:11:29;;;;;;;6.60;2.40;;;;;;;;;;4938680;29;20031;-63
2023/07/25 00:13:55;;;;;;;6.40;2.25;;;;;;;;;;4938450;29;20036;-64
2023/07/25 00:16:21;;;;;;;5.93;2.10;;;;;;;;;;4938511;29;20028;-64
2023/07/25 00:18:48;;;;;;;7.03;2.15;;;;;;;;;;4938216;29;20047;-63
2023/07/25 00:21:14;;;;;;;6.65;2.22;;;;;;;;;;4938372;29;20032;-64
2023/07/25 00:23:40;;;;;;;6.63;2.00;;;;;;;;;;4938447;29;20377;-64
2023/07/25 00:26:06;;;;;;;4.13;2.20;;;;;;;;;;4938469;29;20090;-64
2023/07/25 00:28:33;;;;;;;5.05;1.95;;;;;;;;;;4938634;29;20028;-63
2023/07/25 00:31:05;;;;;;;5.30;1.92;;;;;;;;;;4938148;29;20497;-64
2023/07/25 00:33:31;;;;;;;7.15;2.05;;;;;;;;;;4937840;29;20022;-64
2023/07/25 00:35:58;;;;;;;8.73;2.22;;;;;;;;;;4938215;29;20024;-63
2023/07/25 00:38:24;;;;;;;4.13;2.05;;;;;;;;;;4938322;29;20020;-64
2023/07/25 00:40:50;;;;;;;5.47;2.47;;;;;;;;;;4938341;29;20027;-64
2023/07/25 00:43:17;;;;;;;3.08;1.73;;;;;;;;;;4938346;29;20043;-64
2023/07/25 00:45:43;;;;;;;6.78;1.98;;;;;;;;;;4937832;29;20034;-64
2023/07/25 00:48:09;;;;;;;4.53;2.08;;;;;;;;;;4937707;29;20036;-63
2023/07/25 00:50:36;;;;;;;8.55;1.95;;;;;;;;;;4937934;29;20477;-64
2023/07/25 00:53:03;;;;;;;7.90;1.98;;;;;;;;;;4938212;29;20027;-64
2023/07/25 00:55:29;;;;;;;4.75;1.98;;;;;;;;;;4937879;29;20035;-64
2023/07/25 00:57:55;;;;;;;6.03;1.92;;;;;;;;;;4937821;29;20024;-64
2023/07/25 01:00:22;;;;;;;3.70;1.90;;;;;;;;;;4936818;29;20035;-64
2023/07/25 01:02:48;;;;;;;5.53;1.80;;;;;;;;;;4937386;29;20024;-64
2023/07/25 01:05:15;;;;;;;3.92;1.90;;;;;;;;;;4937310;29;20036;-63
2023/07/25 01:07:41;;;;;;;4.18;1.90;;;;;;;;;;4937640;29;20036;-63
2023/07/25 01:10:08;;;;;;;6.22;2.00;;;;;;;;;;4937538;29;20040;-64
2023/07/25 01:12:34;;;;;;;4.30;1.92;;;;;;;;;;4936751;29;20044;-64
2023/07/25 01:15:01;;;;;;;6.00;2.10;;;;;;;;;;4937671;29;20032;-64
2023/07/25 01:17:27;;;;;;;3.60;1.85;;;;;;;;;;4937113;29;20038;-63
2023/07/25 01:19:54;;;;;;;5.95;2.03;;;;;;;;;;4937588;29;20027;-64
2023/07/25 01:22:22;;;;;;;4.68;2.00;;;;;;;;;;4937238;29;20034;-64
2023/07/25 01:24:48;;;;;;;4.45;1.75;;;;;;;;;;4937362;29;20024;-64
2023/07/25 01:27:15;;;;;;;4.05;1.65;;;;;;;;;;4937158;29;20051;-64
2023/07/25 01:29:41;;;;;;;3.92;1.75;;;;;;;;;;4937496;29;20035;-64
2023/07/25 01:32:08;;;;;;;3.53;1.70;;;;;;;;;;4936845;29;20038;-64
2023/07/25 01:34:34;;;;;;;4.10;1.90;;;;;;;;;;4937152;29;20020;-63
2023/07/25 01:37:01;;;;;;;3.38;1.48;;;;;;;;;;4937202;29;20038;-64
2023/07/25 01:39:27;;;;;;;3.45;1.88;;;;;;;;;;4937143;28;20020;-64
2023/07/25 01:41:53;;;;;;;3.63;1.65;;;;;;;;;;4937134;29;20020;-64
2023/07/25 01:44:19;;;;;;;6.47;1.65;;;;;;;;;;4937178;29;20030;-64
2023/07/25 01:46:46;;;;;;;8.95;1.90;;;;;;;;;;4936526;29;20028;-64
2023/07/25 01:49:12;;;;;;;4.72;1.77;;;;;;;;;;4937114;29;20032;-64
2023/07/25 01:51:39;;;;;;;3.97;2.10;;;;;;;;;;4936664;29;20027;-63
2023/07/25 01:54:05;;;;;;;4.68;1.70;;;;;;;;;;4936825;29;20030;-63
2023/07/25 01:56:32;;;;;;;5.35;1.38;;;;;;;;;;4936812;29;20043;-64
2023/07/25 01:58:58;;;;;;;4.35;1.80;;;;;;;;;;4936832;29;20030;-64
2023/07/25 02:01:25;;;;;;;4.63;1.80;;;;;;;;;;4936691;29;20042;-64
2023/07/25 02:03:51;;;;;;;4.70;1.85;;;;;;;;;;4936697;29;20027;-64
2023/07/25 02:06:17;;;;;;;2.80;1.50;;;;;;;;;;4936527;29;20401;-65
2023/07/25 02:08:43;;;;;;;6.10;1.45;;;;;;;;;;4936348;29;20392;-64
2023/07/25 02:11:10;;;;;;;4.47;1.73;;;;;;;;;;4936449;29;20040;-63
2023/07/25 02:13:36;;;;;;;4.40;1.65;;;;;;;;;;4934365;29;20032;-64
2023/07/25 02:16:02;;;;;;;3.83;1.33;;;;;;;;;;4935756;29;20031;-64
2023/07/25 02:18:29;;;;;;;2.88;1.20;;;;;;;;;;4936082;29;20034;-63
2023/07/25 02:20:55;;;;;;;7.25;2.08;;;;;;;;;;4936268;29;20511;-64
2023/07/25 02:23:21;;;;;;;8.93;1.90;;;;;;;;;;4936446;29;20031;-63
2023/07/25 02:25:48;;;;;;;7.32;2.03;;;;;;;;;;4936076;29;20042;-64
2023/07/25 02:28:14;;;;;;;5.32;1.73;;;;;;;;;;4936454;29;20038;-64
2023/07/25 02:30:40;;;;;;;5.38;1.90;;;;;;;;;;4935770;29;20034;-64
2023/07/25 02:33:07;;;;;;;7.80;1.73;;;;;;;;;;4936277;29;20407;-64
2023/07/25 02:35:33;;;;;;;4.07;1.60;;;;;;;;;;4935905;29;20152;-63
2023/07/25 02:37:59;;;;;;;6.50;2.42;;;;;;;;;;4936157;29;20294;-64
2023/07/25 02:40:26;;;;;;;7.00;1.85;;;;;;;;;;4935968;29;20032;-64
2023/07/25 02:42:52;;;;;;;6.35;2.05;;;;;;;;;;4935964;29;20032;-64
2023/07/25 02:45:18;;;;;;;5.68;1.75;;;;;;;;;;4934237;29;20490;-64
2023/07/25 02:47:45;;;;;;;6.25;2.00;;;;;;;;;;4935703;29;20035;-64
2023/07/25 02:50:11;;;;;;;4.28;2.03;;;;;;;;;;4935978;29;20028;-63
2023/07/25 02:52:37;;;;;;;5.40;2.00;;;;;;;;;;4935689;29;20032;-64
2023/07/25 02:55:05;;;;;;;15.98;2.03;;;;;;;;;;4936057;29;20032;-64
2023/07/25 02:57:31;;;;;;;8.68;1.90;;;;;;;;;;4935556;29;20077;-64
2023/07/25 02:59:57;;;;;;;8.00;2.40;;;;;;;;;;4935204;29;20093;-64
2023/07/25 03:02:24;;;;;;;7.32;2.00;;;;;;;;;;4935670;29;20024;-64
2023/07/25 03:04:50;;;;;;;7.57;2.05;;;;;;;;;;4935715;29;20107;-64
2023/07/25 03:07:16;;;;;;;9.93;2.28;;;;;;;;;;4935670;29;20035;-64
2023/07/25 03:09:44;;;;;;;9.95;2.47;;;;;;;;;;4935330;29;20056;-64
2023/07/25 03:12:10;;;;;;;8.38;1.88;;;;;;;;;;4934982;29;20035;-64
2023/07/25 03:14:36;;;;;;;8.77;2.30;;;;;;;;;;4935157;29;20027;-64
2023/07/25 03:17:03;;;;;;;6.90;2.00;;;;;;;;;;4935626;29;20048;-64
2023/07/25 03:19:29;;;;;;;9.18;2.30;;;;;;;;;;4935426;29;20027;-63
2023/07/25 03:21:55;;;;;;;7.03;2.20;;;;;;;;;;4935395;29;20221;-64
2023/07/25 03:24:22;;;;;;;7.38;2.00;;;;;;;;;;4935316;29;20027;-64
2023/07/25 03:26:48;;;;;;;5.95;2.25;;;;;;;;;;4935237;29;20036;-63
2023/07/25 03:29:14;;;;;;;5.72;2.00;;;;;;;;;;4934983;29;20030;-64
2023/07/25 03:31:40;;;;;;;7.90;2.22;;;;;;;;;;4935456;29;20028;-64
2023/07/25 03:34:07;;;;;;;5.72;1.90;;;;;;;;;;4935243;29;20024;-63
2023/07/25 03:36:33;;;;;;;9.73;1.90;;;;;;;;;;4935291;29;20382;-64
2023/07/25 03:39:00;;;;;;;7.70;2.08;;;;;;;;;;4935237;29;20042;-64
2023/07/25 03:41:26;;;;;;;9.57;2.33;;;;;;;;;;4935201;29;20023;-64
2023/07/25 03:43:52;;;;;;;11.13;2.22;;;;;;;;;;4935192;29;20031;-64
2023/07/25 03:46:18;;;;;;;13.02;2.50;;;;;;;;;;4934987;29;20046;-63
2023/07/25 03:48:45;;;;;;;8.77;2.08;;;;;;;;;;4935291;29;20469;-64
2023/07/25 03:51:11;;;;;;;5.35;2.03;;;;;;;;;;4935156;29;20086;-64
2023/07/25 03:53:37;;;;;;;9.60;2.45;;;;;;;;;;4935208;29;20060;-64
2023/07/25 03:56:04;;;;;;;8.20;2.67;;;;;;;;;;4934865;29;20036;-62
2023/07/25 03:58:30;;;;;;;11.98;2.17;;;;;;;;;;4934863;29;20100;-63
2023/07/25 04:00:56;;;;;;;10.38;2.35;;;;;;;;;;4935427;29;20020;-64
2023/07/25 04:03:23;;;;;;;8.02;2.75;;;;;;;;;;4935036;29;20024;-63
2023/07/25 04:05:49;;;;;;;6.78;2.35;;;;;;;;;;4935366;29;20054;-64
2023/07/25 04:08:16;;;;;;;7.65;2.28;;;;;;;;;;4934873;29;20092;-64
2023/07/25 04:10:42;;;;;;;7.10;2.33;;;;;;;;;;4934529;29;20493;-64
2023/07/25 04:13:08;;;;;;;14.00;2.72;;;;;;;;;;4934414;29;20098;-64
2023/07/25 04:15:35;;;;;;;9.27;2.33;;;;;;;;;;4935023;29;20032;-64
2023/07/25 04:18:01;;;;;;;8.35;2.50;;;;;;;;;;4934943;29;20078;-63
2023/07/25 04:20:28;;;;;;;8.63;2.42;;;;;;;;;;4934853;29;20412;-64
2023/07/25 04:22:54;;;;;;;6.25;1.80;;;;;;;;;;4935143;29;20042;-64
2023/07/25 04:25:20;;;;;;;11.68;2.83;;;;;;;;;;4934545;29;20456;-64
2023/07/25 04:27:46;;;;;;;6.22;2.33;;;;;;;;;;4934776;29;20036;-63
2023/07/25 04:30:13;;;;;;;8.30;2.47;;;;;;;;;;4934894;29;20024;-63
2023/07/25 04:32:39;;;;;;;14.70;2.83;;;;;;;;;;4935008;29;20042;-63
2023/07/25 04:35:06;;;;;;;9.00;2.42;;;;;;;;;;4934521;29;20016;-64
2023/07/25 04:37:32;;;;;;;10.38;2.30;;;;;;;;;;4917687;29;20030;-63
2023/07/25 04:39:58;;;;;;;7.63;2.15;;;;;;;;;;4935691;29;20035;-64
2023/07/25 04:42:24;;;;;;;9.00;2.10;;;;;;;;;;4938042;29;20016;-64
2023/07/25 04:44:51;;;;;;;9.10;2.35;;;;;;;;;;4938015;29;20042;-63
2023/07/25 04:47:17;;;;;;;10.60;2.60;;;;;;;;;;4938076;29;20040;-64
2023/07/25 04:49:43;;;;;;;6.05;2.30;;;;;;;;;;4938274;29;20022;-64
2023/07/25 04:52:10;;;;;;;7.20;2.22;;;;;;;;;;4938266;29;20040;-63
2023/07/25 04:54:36;;;;;;;7.75;2.22;;;;;;;;;;4937591;29;20030;-63
2023/07/25 04:57:02;;;;;;;8.45;2.03;;;;;;;;;;4937815;29;20481;-63
2023/07/25 04:59:30;;;;;;;7.68;2.20;;;;;;;;;;4937713;29;20028;-63
2023/07/25 05:01:56;;;;;;;7.78;2.30;;;;;;;;;;4937652;29;20518;-64
2023/07/25 05:04:22;;;;;;;11.65;2.60;;;;;;;;;;4937716;29;20412;-64
2023/07/25 05:06:49;;;;;;;8.23;1.92;;;;;;;;;;4937796;29;20040;-63
2023/07/25 05:09:18;;;;;;;8.20;2.40;;;;;;;;;;4937331;29;20527;-64
2023/07/25 05:11:47;;;;;;;7.80;2.22;;;;;;;;;;4936809;29;20398;-63
2023/07/25 05:14:13;;;;;;;10.60;2.35;;;;;;;;;;4937820;29;20030;-64
2023/07/25 05:16:39;;;;;;;8.82;2.45;;;;;;;;;;4937499;29;20086;-61
2023/07/25 05:19:06;;;;;;;6.85;1.95;;;;;;;;;;4937429;29;20030;-63
2023/07/25 05:21:32;;;;;;;8.82;2.50;;;;;;;;;;4937335;29;20522;-63
2023/07/25 05:23:59;;;;;;;6.55;1.85;;;;;;;;;;4920118;29;20042;-63
2023/07/25 05:26:25;;;;;;;6.60;2.08;;;;;;;;;;4937378;29;20031;-64
2023/07/25 05:28:51;;;;;;;10.18;2.38;;;;;;;;;;4937365;29;20500;-64
2023/07/25 05:31:18;;;;;;;10.85;2.42;;;;;;;;;;4937120;29;20396;-63
2023/07/25 05:33:44;;;;;;;7.80;2.08;;;;;;;;;;4937572;29;20033;-64
2023/07/25 05:36:10;;;;;;;8.15;2.20;;;;;;;;;;4937151;29;20062;-64
2023/07/25 05:38:36;;;;;;;8.77;2.60;;;;;;;;;;4936758;29;20036;-64
2023/07/25 05:41:03;;;;;;;8.63;2.40;;;;;;;;;;4936934;29;20403;-64
2023/07/25 05:43:29;;;;;;;6.40;2.35;;;;;;;;;;4937038;29;20160;-64
2023/07/25 05:45:55;;;;;;;10.68;2.33;;;;;;;;;;4937009;29;20432;-63
2023/07/25 05:48:22;;;;;;;6.65;1.63;;;;;;;;;;4936707;29;20039;-64
2023/07/25 05:50:51;;;;;;;6.35;2.25;;;;;;;;;;4936265;29;20388;-64
2023/07/25 05:53:18;;;;;;;8.48;2.35;;;;;;;;;;4936262;29;20031;-64
2023/07/25 05:55:48;;;;;;;11.10;2.65;;;;;;;;;;4935480;29;20035;-64
2023/07/25 05:58:15;;;;;;;6.55;2.30;;;;;;;;;;4936897;29;20495;-63
2023/07/25 06:00:41;;;;;;;7.50;2.63;;;;;;;;;;4936774;29;20024;-63
2023/07/25 06:03:09;;;;;;;6.07;2.28;;;;;;;;;;4936626;29;20032;-63
2023/07/25 06:05:36;;;;;;;6.15;2.40;;;;;;;;;;4936461;29;20511;-64
2023/07/25 06:08:02;;;;;;;10.80;2.80;;;;;;;;;;4936114;29;20032;-63
2023/07/25 06:10:28;;;;;;;7.15;2.10;;;;;;;;;;4936212;29;20397;-64
2023/07/25 06:12:55;;;;;;;8.45;2.70;;;;;;;;;;4935842;29;20036;-64
2023/07/25 06:15:21;;;;;;;5.20;2.08;;;;;;;;;;4921887;29;20405;-65
2023/07/25 06:17:47;;;;;;;4.97;2.03;;;;;;;;;;4916892;29;20032;-64
2023/07/25 06:20:14;;;;;;;8.77;2.13;;;;;;;;;;4916886;29;20024;-64
2023/07/25 06:22:40;;;;;;;5.50;1.92;;;;;;;;;;4916621;29;20016;-64
2023/07/25 06:25:07;;;;;;;4.63;1.42;;;;;;;;;;4915569;29;20032;-64
2023/07/25 06:27:34;;;;;;;6.70;1.85;;;;;;;;;;4916329;29;20044;-64
2023/07/25 06:30:02;;;;;;;5.82;1.73;;;;;;;;;;4914904;29;20079;-63
2023/07/25 06:32:30;;;;;;;3.97;1.38;;;;;;;;;;4915522;29;20043;-64
2023/07/25 06:34:56;;;;;;;5.20;1.25;;;;;;;;;;4916564;29;20078;-64
2023/07/25 06:37:23;;;;;;;3.65;1.50;;;;;;;;;;4916435;29;20024;-64
2023/07/25 06:39:49;;;;;;;2.53;1.50;;;;;;;;;;4916927;29;20043;-64
2023/07/25 06:42:15;;;;;;;3.63;1.60;;;;;;;;;;4916634;29;20062;-64
2023/07/25 06:44:42;;;;;;;3.60;1.40;;;;;;;;;;4915929;29;20039;-65
2023/07/25 06:47:08;;;;;;;5.20;1.65;;;;;;;;;;4915621;29;20040;-64
2023/07/25 06:49:34;;;;;;;5.20;1.02;;;;;;;;;;4916836;29;20505;-64
2023/07/25 06:52:01;;;;;;;2.22;0.93;;;;;;;;;;4913483;29;20020;-64
2023/07/25 06:54:27;;;;;;;4.32;1.27;;;;;;;;;;4931531;29;20084;-64
2023/07/25 06:56:54;;;;;;;2.50;1.00;;;;;;;;;;4916405;29;20032;-63
2023/07/25 06:59:20;;;;;;;2.17;0.70;;;;;;;;;;4914578;29;20386;-63
2023/07/25 07:01:46;;;;;;;3.40;1.00;;;;;;;;;;4914401;29;20040;-63
2023/07/25 07:04:13;;;;;;;2.40;0.80;;;;;;;;;;4915126;29;20039;-64
2023/07/25 07:06:39;;;;;;;1.38;0.90;;;;;;;;;;4914189;29;20031;-64
2023/07/25 07:09:05;;;;;;;2.53;0.98;;;;;;;;;;4915401;29;20044;-64
2023/07/25 07:11:32;;;;;;;1.58;0.75;;;;;;;;;;4915035;29;20031;-64
2023/07/25 07:13:58;;;;;;;3.17;0.90;;;;;;;;;;4927126;29;20028;-65
2023/07/25 07:16:24;;;;;;;2.17;1.17;;;;;;;;;;4915178;29;20036;-65
2023/07/25 07:18:51;;;;;;;2.78;0.90;;;;;;;;;;4915187;29;20023;-65
2023/07/25 07:21:17;;;;;;;3.58;1.15;;;;;;;;;;4914947;29;20039;-65
2023/07/25 07:23:43;;;;;;;1.40;0.80;;;;;;;;;;4914915;29;20027;-64
2023/07/25 07:26:09;;;;;;;1.75;1.00;;;;;;;;;;4915281;29;20032;-64
2023/07/25 07:28:36;;;;;;;4.10;1.15;;;;;;;;;;4914453;29;20031;-65
2023/07/25 07:31:02;;;;;;;2.67;1.10;;;;;;;;;;4913854;29;20068;-65
2023/07/25 07:33:30;;;;;;;2.63;1.10;;;;;;;;;;4914976;29;20032;-64
2023/07/25 07:35:56;;;;;;;2.33;1.20;;;;;;;;;;4913610;29;20397;-64
2023/07/25 07:38:22;;;;;;;3.47;0.98;;;;;;;;;;4915091;29;20021;-64
2023/07/25 07:40:49;;;;;;;3.20;1.05;;;;;;;;;;4915032;29;20528;-64
2023/07/25 07:43:15;;;;;;;3.20;1.00;;;;;;;;;;4915643;29;20031;-66
2023/07/25 07:45:42;;;;;;;1.38;1.05;;;;;;;;;;4914981;29;20485;-67
2023/07/25 07:48:08;;;;;;;1.65;0.90;;;;;;;;;;4914670;29;20048;-68
2023/07/25 07:50:34;;;;;;;11.30;1.30;;;;;;;;;;4914987;29;20413;-64
2023/07/25 07:53:01;;;;;;;3.67;1.30;;;;;;;;;;4914798;29;20032;-64
2023/07/25 07:55:28;;;;;;;7.03;1.25;;;;;;;;;;4914982;29;20038;-64
2023/07/25 07:57:55;;;;;;;2.85;1.25;;;;;;;;;;4912745;29;20036;-65
2023/07/25 08:00:23;;;;;;;2.90;1.10;;;;;;;;;;4914168;29;20095;-65
2023/07/25 08:02:51;;;;;;;3.05;1.38;;;;;;;;;;4914484;29;20500;-65
2023/07/25 08:05:17;;;;;;;2.60;1.20;;;;;;;;;;4914878;29;20035;-65
2023/07/25 08:07:44;;;;;;;5.00;1.45;;;;;;;;;;4914631;29;20044;-65
2023/07/25 08:10:11;;;;;;;3.40;1.33;;;;;;;;;;4914470;29;20416;-65
2023/07/25 08:12:37;;;;;;;2.53;0.95;;;;;;;;;;4922549;29;20165;-64
2023/07/25 08:15:04;;;;;;;2.28;1.17;;;;;;;;;;4922664;29;20024;-65
2023/07/25 08:17:30;;;;;;;3.88;1.10;;;;;;;;;;4917941;29;20408;-64
2023/07/25 08:19:56;;;;;;;3.85;1.58;;;;;;;;;;4917813;29;20482;-65
2023/07/25 08:22:23;;;;;;;3.25;1.40;;;;;;;;;;4918125;29;20028;-65
2023/07/25 08:24:51;;;;;;;3.17;1.50;;;;;;;;;;4917657;29;20048;-64
2023/07/25 08:27:18;;;;;;;5.53;1.52;;;;;;;;;;4918376;29;20044;-65
2023/07/25 08:29:47;;;;;;;5.97;1.40;;;;;;;;;;4916107;29;20028;-65
2023/07/25 08:32:14;;;;;;;7.05;1.42;;;;;;;;;;4936109;29;20381;-64
2023/07/25 08:34:41;;;;;;;6.63;1.58;;;;;;;;;;4927069;29;20396;-64
2023/07/25 08:37:07;;;;;;;5.07;1.48;;;;;;;;;;4917831;29;20392;-65
2023/07/25 08:39:34;;;;;;;4.93;1.30;;;;;;;;;;4917610;29;20034;-64
2023/07/25 08:42:04;;;;;;;6.43;1.70;;;;;;;;;;4917174;29;20400;-65
2023/07/25 08:44:32;;;;;;;4.18;1.30;;;;;;;;;;4917951;29;20050;-65
2023/07/25 08:47:02;;;;;;;5.80;1.90;;;;;;;;;;4917195;29;20042;-64
2023/07/25 08:49:30;;;;;;;6.32;1.25;;;;;;;;;;4917780;29;20058;-65
2023/07/25 08:51:59;;;;;;;2.80;1.45;;;;;;;;;;4917748;29;20086;-65
2023/07/25 08:54:31;;;;;;;5.57;1.48;;;;;;;;;;4917428;29;20024;-65
2023/07/25 08:56:57;;;;;;;7.90;1.67;;;;;;;;;;4915985;29;20038;-65
2023/07/25 08:59:27;;;;;;;5.30;1.75;;;;;;;;;;4917458;29;20012;-65
2023/07/25 09:01:54;;;;;;;6.82;1.98;;;;;;;;;;4916646;29;20039;-66
2023/07/25 09:04:21;;;;;;;4.55;1.70;;;;;;;;;;4916615;29;20424;-66
2023/07/25 09:06:47;;;;;;;3.60;1.50;;;;;;;;;;4917282;29;20047;-66
2023/07/25 09:09:14;;;;;;;5.53;1.75;;;;;;;;;;4917290;29;20404;-62
2023/07/25 09:11:41;;;;;;;9.38;1.60;;;;;;;;;;4918118;29;20032;-64
2023/07/25 09:14:07;;;;;;;4.65;1.48;;;;;;;;;;4934359;29;20035;-65
2023/07/25 09:16:34;;;;;;;4.63;1.65;;;;;;;;;;4917181;29;20024;-65
2023/07/25 09:19:00;;;;;;;6.25;1.83;;;;;;;;;;4916573;29;20035;-62
2023/07/25 09:21:27;;;;;;;4.75;1.60;;;;;;;;;;4917113;29;20126;-65
2023/07/25 09:23:57;;;;;;;7.68;1.70;;;;;;;;;;4917328;29;20030;-65
2023/07/25 09:26:28;;;;;;;7.18;1.60;;;;;;;;;;4897948;29;20042;-76
2023/07/25 09:28:56;;;;;;;6.40;1.95;;;;;;;;;;4897875;29;20040;-82
2023/07/25 09:31:23;;;;;;;5.82;1.67;;;;;;;;;;4916155;29;20029;-76
2023/07/25 09:33:50;;;;;;;4.95;1.65;;;;;;;;;;4916763;29;20032;-84
2023/07/25 09:36:20;;;;;;;7.45;1.55;;;;;;;;;;4916250;29;20036;-80
2023/07/25 09:38:54;;;;;;;10.07;2.05;;;;;;;;;;4916836;29;20409;-78
2023/07/25 09:41:21;;;;;;;4.57;1.70;;;;;;;;;;4918830;29;20034;-85
2023/07/25 09:43:47;;;;;;;4.20;1.50;;;;;;;;;;4935477;29;20030;-81
2023/07/25 09:46:14;;;;;;;5.82;1.73;;;;;;;;;;4918317;29;20536;-77
2023/07/25 09:48:48;;;;;;;4.85;1.85;;;;;;;;;;4916462;29;20043;-78
2023/07/25 09:51:15;;;;;;;4.47;1.35;;;;;;;;;;4915293;29;20036;-79
2023/07/25 09:53:45;;;;;;;5.90;1.83;;;;;;;;;;4916451;29;20032;-74
2023/07/25 09:56:11;;;;;;;4.25;1.40;;;;;;;;;;4916101;29;20028;-79
2023/07/25 09:58:38;;;;;;;5.28;1.80;;;;;;;;;;4916626;29;20038;-77
2023/07/25 10:01:04;;;;;;;4.30;1.30;;;;;;;;;;4916257;29;20028;-73
2023/07/25 10:03:31;;;;;;;8.02;1.42;;;;;;;;;;4916498;29;20031;-73
2023/07/25 10:05:58;;;;;;;5.47;1.55;;;;;;;;;;4916419;29;20028;-67
2023/07/25 10:08:26;;;;;;;7.10;1.90;;;;;;;;;;4916568;29;20040;-67
2023/07/25 10:10:55;;;;;;;3.75;1.27;;;;;;;;;;4916107;29;20059;-66
2023/07/25 10:13:22;;;;;;;5.95;1.80;;;;;;;;;;4932375;29;20041;-66
2023/07/25 10:15:48;;;;;;;5.70;1.83;;;;;;;;;;4923054;29;20035;-65
2023/07/25 10:18:20;;;;;;;6.13;1.60;;;;;;;;;;4916054;29;20038;-66
2023/07/25 10:20:47;;;;;;;4.07;1.35;;;;;;;;;;4915884;29;20020;-66
2023/07/25 10:23:14;;;;;;;6.57;1.63;;;;;;;;;;4916257;29;20040;-65
2023/07/25 10:25:41;;;;;;;6.90;2.15;;;;;;;;;;4915841;29;20027;-66
2023/07/25 10:28:07;;;;;;;5.47;1.50;;;;;;;;;;4915497;29;20052;-65
2023/07/25 10:30:44;;;;;;;10.73;1.90;;;;;;;;;;4916008;29;20020;-66
2023/07/25 10:33:12;;;;;;;5.72;1.70;;;;;;;;;;4916052;29;20046;-65
2023/07/25 10:35:38;;;;;;;6.43;1.60;;;;;;;;;;4914769;29;20416;-65
2023/07/25 10:38:09;;;;;;;5.03;1.55;;;;;;;;;;4915586;29;20469;-66
2023/07/25 10:40:55;;;;;;;4.38;1.77;;;;;;;;;;4916381;29;20028;-65
2023/07/25 10:43:22;;;;;;;9.02;2.22;;;;;;;;;;4934078;29;20053;-65
2023/07/25 10:45:50;;;;;;;5.38;1.70;;;;;;;;;;4934624;29;20034;-66
2023/07/25 10:48:36;;;;;;;6.95;1.83;;;;;;;;;;4934737;29;20439;-65
2023/07/25 10:51:06;;;;;;;10.05;1.80;;;;;;;;;;4934873;29;20032;-66
2023/07/25 10:53:32;;;;;;;4.93;1.55;;;;;;;;;;4934753;29;20023;-66
2023/07/25 10:56:05;;;;;;;5.35;1.42;;;;;;;;;;4934853;29;20507;-66
2023/07/25 10:58:31;;;;;;;4.10;1.70;;;;;;;;;;4934440;29;20373;-65
2023/07/25 11:00:58;;;;;;;7.03;2.05;;;;;;;;;;4934879;29;20028;-63
2023/07/25 11:03:27;;;;;;;11.85;2.13;;;;;;;;;;4934929;29;20030;-64
2023/07/25 11:06:09;;;;;;;3.92;1.50;;;;;;;;;;4934774;29;20038;-64
2023/07/25 11:08:39;;;;;;;3.17;1.30;;;;;;;;;;4934621;29;20047;-63
2023/07/25 11:11:07;;;;;;;5.97;1.30;;;;;;;;;;4932529;29;20456;-63
2023/07/25 11:13:34;;;;;;;5.13;1.70;;;;;;;;;;4919010;29;20031;-63
2023/07/25 11:16:03;;;;;;;4.25;1.40;;;;;;;;;;4915557;29;20035;-63
2023/07/25 11:18:33;;;;;;;5.85;1.42;;;;;;;;;;4915474;29;20035;-64
2023/07/25 11:21:04;;;;;;;4.93;1.60;;;;;;;;;;4915230;29;20028;-64
2023/07/25 11:23:31;;;;;;;7.25;1.50;;;;;;;;;;4915067;29;20063;-64
2023/07/25 11:25:59;;;;;;;4.00;1.38;;;;;;;;;;4914881;29;20027;-66
2023/07/25 11:28:26;;;;;;;5.07;1.23;;;;;;;;;;4915062;29;20036;-64
2023/07/25 11:30:52;;;;;;;5.55;1.70;;;;;;;;;;4915328;29;20363;-66
2023/07/25 11:33:19;;;;;;;2.40;1.20;;;;;;;;;;4915560;29;20024;-66
2023/07/25 11:35:45;;;;;;;6.70;1.70;;;;;;;;;;4915142;29;20474;-66
2023/07/25 11:38:12;;;;;;;3.95;1.65;;;;;;;;;;4915391;29;20485;-66
2023/07/25 11:40:40;;;;;;;4.75;1.50;;;;;;;;;;4915043;29;20047;-66
2023/07/25 11:43:13;;;;;;;5.90;1.52;;;;;;;;;;4931705;29;20032;-66
2023/07/25 11:45:39;;;;;;;3.65;1.30;;;;;;;;;;4934031;29;20035;-66
2023/07/25 11:48:08;;;;;;;6.30;1.73;;;;;;;;;;4934269;29;20036;-66
2023/07/25 11:50:35;;;;;;;5.93;1.60;;;;;;;;;;4938438;29;20028;-64
2023/07/25 11:53:02;;;;;;;6.53;1.85;;;;;;;;;;4937821;29;20403;-63
2023/07/25 11:55:28;;;;;;;4.43;1.73;;;;;;;;;;4919624;29;20028;-64
2023/07/25 11:57:55;;;;;;;5.43;1.63;;;;;;;;;;4905422;29;20504;-64
2023/07/25 12:00:22;;;;;;;4.65;1.73;;;;;;;;;;4899223;29;20025;-63
2023/07/25 12:02:49;;;;;;;5.55;1.40;;;;;;;;;;4899951;29;20080;-63
2023/07/25 12:05:28;;;;;;;5.93;1.40;;;;;;;;;;4900348;29;20382;-66
2023/07/25 12:08:02;;;;;;;2.90;1.17;;;;;;;;;;4903601;29;20044;-66
2023/07/25 12:10:33;;;;;;;5.25;1.63;;;;;;;;;;4936681;29;20051;-64
2023/07/25 12:13:02;;;;;;;3.47;1.23;;;;;;;;;;4937027;29;20040;-66
2023/07/25 12:15:45;;;;;;;2.78;1.23;;;;;;;;;;4937725;29;20023;-67
2023/07/25 12:18:30;;;;;;;4.90;1.50;;;;;;;;;;4937547;29;20392;-66
2023/07/25 12:20:57;;;;;;;5.30;1.17;;;;;;;;;;4937820;29;20128;-63
2023/07/25 12:23:28;;;;;;;5.50;1.38;;;;;;;;;;4923867;29;20040;-66
2023/07/25 12:25:55;;;;;;;3.92;1.30;;;;;;;;;;4918119;29;20027;-66
2023/07/25 12:28:22;;;;;;;5.57;1.60;;;;;;;;;;4918123;29;20038;-66
2023/07/25 12:30:48;;;;;;;5.50;1.40;;;;;;;;;;4918389;29;20034;-66
2023/07/25 12:33:14;;;;;;;7.60;1.40;;;;;;;;;;4918333;29;20032;-66
2023/07/25 12:35:41;;;;;;;6.00;1.30;;;;;;;;;;4918159;29;20038;-64
2023/07/25 12:38:07;;;;;;;3.92;1.20;;;;;;;;;;4917939;29;20388;-63
2023/07/25 12:40:33;;;;;;;3.45;1.27;;;;;;;;;;4918538;29;20024;-65
2023/07/25 12:42:59;;;;;;;4.35;1.40;;;;;;;;;;4912535;29;20034;-66
2023/07/25 12:45:26;;;;;;;8.80;1.65;;;;;;;;;;4918090;29;20020;-66
2023/07/25 12:47:52;;;;;;;4.50;1.50;;;;;;;;;;4917472;29;20564;-63
2023/07/25 12:50:18;;;;;;;6.03;1.48;;;;;;;;;;4917807;29;20109;-64
2023/07/25 12:52:45;;;;;;;9.30;1.40;;;;;;;;;;4917694;29;20040;-64
2023/07/25 12:55:11;;;;;;;5.07;1.50;;;;;;;;;;4918104;29;20020;-64
2023/07/25 12:57:37;;;;;;;4.53;1.23;;;;;;;;;;4917588;29;20040;-63
2023/07/25 13:00:06;;;;;;;8.35;1.95;;;;;;;;;;4917573;29;20036;-63
2023/07/25 13:02:33;;;;;;;4.18;1.45;;;;;;;;;;4917841;29;20028;-64
2023/07/25 13:04:59;;;;;;;5.13;1.50;;;;;;;;;;4917126;29;20389;-64
2023/07/25 13:07:25;;;;;;;5.30;1.67;;;;;;;;;;4917452;29;20032;-63
2023/07/25 13:09:56;;;;;;;5.40;1.42;;;;;;;;;;4916124;29;20451;-64
2023/07/25 13:12:25;;;;;;;4.10;1.50;;;;;;;;;;4924346;29;20027;-64
2023/07/25 13:14:51;;;;;;;4.13;1.38;;;;;;;;;;4936769;29;20098;-64
2023/07/25 13:17:17;;;;;;;8.75;1.20;;;;;;;;;;4936707;29;20030;-64
2023/07/25 13:19:43;;;;;;;6.65;1.35;;;;;;;;;;4936354;29;20545;-63
2023/07/25 13:22:10;;;;;;;5.53;1.42;;;;;;;;;;4925454;29;20050;-64
2023/07/25 13:24:36;;;;;;;4.22;1.15;;;;;;;;;;4915915;29;20036;-61
2023/07/25 13:27:03;;;;;;;5.35;1.60;;;;;;;;;;4915630;29;20032;-64
2023/07/25 13:29:29;;;;;;;7.15;1.60;;;;;;;;;;4916742;29;20035;-64
2023/07/25 13:31:56;;;;;;;5.40;1.30;;;;;;;;;;4917494;29;20013;-63
2023/07/25 13:34:22;;;;;;;3.13;1.13;;;;;;;;;;4917471;29;20095;-64
2023/07/25 13:36:48;;;;;;;3.88;1.40;;;;;;;;;;4917376;29;20058;-64
2023/07/25 13:39:15;;;;;;;4.90;1.50;;;;;;;;;;4916251;29;20493;-64
2023/07/25 13:41:41;;;;;;;3.08;1.25;;;;;;;;;;4922107;29;20448;-64
2023/07/25 13:44:07;;;;;;;5.15;1.27;;;;;;;;;;4936232;29;20064;-64
2023/07/25 13:46:34;;;;;;;5.72;1.48;;;;;;;;;;4936029;29;20046;-64
2023/07/25 13:49:00;;;;;;;5.13;1.45;;;;;;;;;;4935822;29;20035;-64
2023/07/25 13:51:27;;;;;;;4.85;1.20;;;;;;;;;;4935699;29;20027;-64
2023/07/25 13:53:53;;;;;;;7.75;1.33;;;;;;;;;;4934562;29;20496;-64
2023/07/25 13:56:19;;;;;;;4.72;1.40;;;;;;;;;;4936061;29;20042;-65
2023/07/25 13:58:46;;;;;;;3.53;1.10;;;;;;;;;;4935771;29;20023;-64
2023/07/25 14:01:13;;;;;;;5.47;1.35;;;;;;;;;;4936029;29;20027;-63
2023/07/25 14:03:39;;;;;;;7.05;1.60;;;;;;;;;;4925767;29;20086;-64
2023/07/25 14:06:05;;;;;;;6.88;1.60;;;;;;;;;;4916608;29;20032;-64
2023/07/25 14:08:33;;;;;;;3.85;1.10;;;;;;;;;;4916323;29;20493;-66
2023/07/25 14:11:00;;;;;;;4.20;1.48;;;;;;;;;;4916290;29;20417;-67
2023/07/25 14:13:26;;;;;;;2.83;1.30;;;;;;;;;;4916038;29;20042;-66
2023/07/25 14:15:54;;;;;;;5.13;1.20;;;;;;;;;;4899129;29;20032;-63
2023/07/25 14:18:21;;;;;;;4.68;1.08;;;;;;;;;;4916458;29;20440;-66
2023/07/25 14:20:48;;;;;;;5.15;1.33;;;;;;;;;;4916037;29;20086;-66
2023/07/25 14:23:14;;;;;;;12.20;1.30;;;;;;;;;;4916286;29;20497;-66
2023/07/25 14:25:40;;;;;;;4.22;1.15;;;;;;;;;;4916154;29;20028;-66
2023/07/25 14:28:06;;;;;;;4.15;1.77;;;;;;;;;;4916005;29;20404;-66
2023/07/25 14:30:33;;;;;;;3.53;1.33;;;;;;;;;;4916604;29;20024;-66
2023/07/25 14:33:06;;;;;;;3.25;0.98;;;;;;;;;;5068810;28;20783;-64
2023/07/25 14:35:33;;;;;;;5.05;1.15;;;;;;;;;;5101226;28;20035;-64
2023/07/25 14:37:59;;;;;;;4.65;1.52;;;;;;;;;;5068870;28;20505;-64
2023/07/25 14:40:25;;;;;;;5.78;1.25;;;;;;;;;;5068620;28;20025;-64
2023/07/25 14:42:52;;;;;;;1.73;1.05;;;;;;;;;;5068955;28;20086;-64